Dati Storici

Data ora Umidita' aria (%) Temperatura aria (°C) Rad globale (W/m²) Gonioanemometro (°) Tacoanemometro (m/s) Pioggia (mm)
26-06-2020 07:30 84.1 % 19.597 38.367 1.898 0 0
26-06-2020 07:20 85.6 % 19.394 45.135 0.827 0 0
26-06-2020 07:10 87 % 19.208 7.55 1.477 0 0
26-06-2020 07:00 87.4 % 19.057 17.93 1.487 0 0
26-06-2020 06:50 87.7 % 18.908 33.184 2.463 0 0
26-06-2020 06:40 89 % 18.943 188.194 0.039 0 0
26-06-2020 06:30 90.1 % 18.891 341.319 -0.005 0 0
26-06-2020 06:20 90 % 18.636 27.048 0.85 0 0
26-06-2020 06:10 89.2 % 18.59 12.368 0.999 0 0
26-06-2020 06:00 88.4 % 18.617 3.67 1.625 0 0
26-06-2020 05:50 88.4 % 18.824 16.807 1.069 0 0
26-06-2020 05:40 88.2 % 18.646 31.535 2.049 0 0
26-06-2020 05:30 87.9 % 18.746 25.818 1.487 0 0
26-06-2020 05:20 88.6 % 18.798 1.878 -0.006 0 0
26-06-2020 05:10 88.7 % 18.485 15.32 1.399 0 0
26-06-2020 05:00 89.4 % 18.388 12.956 0.866 0 0
26-06-2020 04:50 89.6 % 18.229 59.668 2.342 0 0
26-06-2020 04:40 90 % 18.174 24.932 2.184 0 0
26-06-2020 04:30 90.3 % 18.104 21.635 0.389 0 0
26-06-2020 04:20 89.5 % 18.068 38.393 1.093 0 0

I dati sono presentati in modo automatico a scopo informativo. In seguito a verifica i dati possono subire modifiche o essere invalidati e non riportati negli archivi definitivi.